createdAt,value
2022-08-17T00:00:34.587Z,35.66
2022-08-17T00:05:41.306Z,35.57
2022-08-17T00:10:46.738Z,35.44
2022-08-17T00:15:48.920Z,35.54
2022-08-17T00:20:50.811Z,35.71
2022-08-17T00:25:53.727Z,35.92
2022-08-17T00:30:55.850Z,36.30
2022-08-17T00:35:59.429Z,36.39
2022-08-17T00:41:09.279Z,36.36
2022-08-17T00:46:14.687Z,36.62
2022-08-17T00:51:52.823Z,36.33
2022-08-17T00:57:02.638Z,36.57
2022-08-17T01:02:06.427Z,36.99
2022-08-17T01:07:10.623Z,36.93
2022-08-17T01:12:12.830Z,37.16
2022-08-17T01:17:14.711Z,37.77
2022-08-17T01:22:19.940Z,38.27
2022-08-17T01:27:22.181Z,37.98
2022-08-17T01:32:25.790Z,38.50
2022-08-17T01:37:32.482Z,38.65
2022-08-17T01:42:43.713Z,38.95
2022-08-17T01:47:45.873Z,38.72
2022-08-17T01:52:54.316Z,39.02
2022-08-17T01:57:56.410Z,39.43
2022-08-17T02:02:58.300Z,39.45
2022-08-17T02:08:00.880Z,39.58
2022-08-17T02:13:04.587Z,40.01
2022-08-17T02:18:06.910Z,39.78
2022-08-17T02:23:10.813Z,39.86
2022-08-17T02:28:12.720Z,39.67
2022-08-17T02:33:15.018Z,39.38
2022-08-17T02:38:17.542Z,39.61
2022-08-17T02:43:20.863Z,39.25
2022-08-17T02:48:31.087Z,39.44
2022-08-17T02:53:35.828Z,39.66
2022-08-17T02:58:38.196Z,39.89
2022-08-17T03:03:40.259Z,39.46
2022-08-17T03:08:42.277Z,40.22
2022-08-17T03:13:44.193Z,40.45
2022-08-17T03:18:46.370Z,40.87
2022-08-17T03:23:48.266Z,41.21
2022-08-17T03:28:56.516Z,41.69
2022-08-17T03:33:58.489Z,41.64
2022-08-17T03:39:00.748Z,41.55
2022-08-17T03:44:03.090Z,41.55
2022-08-17T03:49:26.379Z,41.58
2022-08-17T03:54:46.958Z,41.43
2022-08-17T03:59:49.590Z,41.33
2022-08-17T04:04:52.568Z,41.17
2022-08-17T04:09:55.027Z,41.01
2022-08-17T04:14:57.041Z,40.63
2022-08-17T04:19:58.921Z,40.58
2022-08-17T04:25:19.106Z,40.40
2022-08-17T04:30:21.556Z,40.46
2022-08-17T04:35:26.795Z,40.54
2022-08-17T04:40:47.445Z,40.27
2022-08-17T04:45:56.351Z,40.30
2022-08-17T04:51:00.139Z,40.33
2022-08-17T04:56:02.241Z,40.53
2022-08-17T05:01:05.914Z,40.52
2022-08-17T05:06:08.271Z,40.42
2022-08-17T05:11:10.528Z,40.16
2022-08-17T05:16:12.429Z,40.32
2022-08-17T05:21:15.200Z,40.56
2022-08-17T05:26:25.902Z,40.61
2022-08-17T05:31:29.540Z,40.61
2022-08-17T05:36:41.611Z,40.26
2022-08-17T05:41:47.953Z,40.28
2022-08-17T05:46:53.327Z,40.41
2022-08-17T05:52:23.653Z,39.83
2022-08-17T05:57:53.586Z,39.08
2022-08-17T06:03:20.137Z,39.08
2022-08-17T06:08:37.225Z,38.55
2022-08-17T06:14:00.246Z,38.07
2022-08-17T06:19:17.445Z,37.76
2022-08-17T06:24:50.131Z,37.47
2022-08-17T06:30:22.298Z,37.22
2022-08-17T06:35:34.034Z,36.92
2022-08-17T06:40:36.137Z,36.38
2022-08-17T06:45:43.616Z,35.82
2022-08-17T06:50:51.410Z,35.34
2022-08-17T06:56:00.001Z,35.68
2022-08-17T07:01:15.512Z,35.68
2022-08-17T07:06:21.490Z,35.87
2022-08-17T07:11:28.217Z,35.63
2022-08-17T07:16:50.818Z,35.07
2022-08-17T07:22:03.896Z,35.11
2022-08-17T07:27:22.860Z,34.63
2022-08-17T07:32:34.365Z,34.29
2022-08-17T07:37:40.380Z,33.77
2022-08-17T07:42:46.588Z,33.66
2022-08-17T07:48:10.524Z,33.21
2022-08-17T07:53:23.328Z,32.85
2022-08-17T07:58:26.739Z,32.35
2022-08-17T08:03:32.131Z,32.00
2022-08-17T08:08:37.726Z,31.94
2022-08-17T08:13:43.882Z,31.61
2022-08-17T08:18:55.704Z,31.10
2022-08-17T08:24:35.608Z,30.66
2022-08-17T08:30:04.954Z,30.25
2022-08-17T08:35:13.770Z,29.90
2022-08-17T08:40:34.773Z,29.77
2022-08-17T08:46:04.763Z,29.51
2022-08-17T08:51:18.126Z,29.11
2022-08-17T08:56:34.532Z,28.81
2022-08-17T09:01:56.651Z,28.66
2022-08-17T09:07:07.553Z,28.18
2022-08-17T09:12:26.343Z,27.97
2022-08-17T09:17:47.502Z,27.75
2022-08-17T09:22:56.228Z,27.32
2022-08-17T09:28:14.304Z,26.95
2022-08-17T09:33:23.152Z,26.88
2022-08-17T09:39:06.096Z,26.71
2022-08-17T09:44:29.863Z,26.65
2022-08-17T09:49:45.512Z,26.40
2022-08-17T09:54:48.589Z,26.12
2022-08-17T10:00:13.715Z,25.62
2022-08-17T10:05:46.697Z,24.98
2022-08-17T10:11:05.713Z,25.04
2022-08-17T10:16:21.210Z,24.57
2022-08-17T10:21:43.799Z,24.68
2022-08-17T10:26:57.252Z,24.04
2022-08-17T10:32:07.168Z,24.25
2022-08-17T10:37:35.612Z,24.10
2022-08-17T10:42:59.187Z,23.54
2022-08-17T10:48:22.631Z,23.26
2022-08-17T10:53:33.763Z,23.20
2022-08-17T10:58:47.796Z,22.89
2022-08-17T11:03:56.001Z,22.98
2022-08-17T11:09:05.568Z,22.25
2022-08-17T11:14:33.353Z,22.38
2022-08-17T11:19:47.278Z,21.92
2022-08-17T11:24:54.113Z,21.55
2022-08-17T11:30:06.441Z,21.34
2022-08-17T11:35:23.788Z,21.01
2022-08-17T11:40:36.511Z,21.04
2022-08-17T11:46:16.085Z,20.45
2022-08-17T11:51:36.414Z,20.61
2022-08-17T11:56:41.223Z,20.42
2022-08-17T12:01:57.231Z,20.71
2022-08-17T12:07:18.601Z,20.51
2022-08-17T12:12:29.732Z,20.62
2022-08-17T12:17:40.167Z,20.91
2022-08-17T12:22:53.489Z,20.66
2022-08-17T12:28:06.119Z,20.51
2022-08-17T12:33:25.629Z,20.55
2022-08-17T12:38:36.545Z,20.99
2022-08-17T12:43:38.504Z,20.64
2022-08-17T12:48:40.405Z,20.19
2022-08-17T12:54:02.363Z,19.68
2022-08-17T12:59:04.292Z,19.97
2022-08-17T13:04:07.263Z,20.03
2022-08-17T13:09:18.535Z,20.02
2022-08-17T13:14:20.664Z,19.85
2022-08-17T13:19:40.038Z,20.05
2022-08-17T13:24:58.425Z,20.25
2022-08-17T13:30:07.538Z,20.49
2022-08-17T13:35:39.846Z,20.20
2022-08-17T13:40:49.340Z,20.43
2022-08-17T13:45:52.461Z,20.04
2022-08-17T13:50:57.059Z,20.19
2022-08-17T13:56:37.621Z,19.74
2022-08-17T14:01:39.548Z,19.69
2022-08-17T14:06:58.075Z,19.67
2022-08-17T14:12:02.204Z,19.60
2022-08-17T14:17:05.789Z,19.82
2022-08-17T14:22:19.046Z,19.60
2022-08-17T14:27:21.899Z,19.81
2022-08-17T14:32:30.536Z,19.56
2022-08-17T14:37:34.502Z,19.59
2022-08-17T14:42:38.679Z,19.71
2022-08-17T14:47:41.851Z,19.58
2022-08-17T14:52:44.072Z,19.69
2022-08-17T14:57:48.483Z,19.34
2022-08-17T15:02:54.404Z,20.00
2022-08-17T15:07:56.445Z,20.04
2022-08-17T15:12:59.720Z,19.98
2022-08-17T15:18:02.598Z,19.99
2022-08-17T15:23:07.209Z,20.03
2022-08-17T15:28:10.129Z,19.55
2022-08-17T15:33:29.787Z,20.02
2022-08-17T15:38:39.936Z,19.88
2022-08-17T15:43:44.884Z,19.84
2022-08-17T15:48:51.730Z,19.50
2022-08-17T15:53:58.920Z,19.73
2022-08-17T15:59:02.145Z,20.17
2022-08-17T16:04:07.069Z,19.86
2022-08-17T16:09:11.530Z,20.13
2022-08-17T16:14:14.039Z,20.67
2022-08-17T16:19:16.545Z,20.66
2022-08-17T16:24:18.482Z,20.75
2022-08-17T16:29:21.460Z,20.88
2022-08-17T16:34:23.689Z,20.75
2022-08-17T16:39:28.195Z,20.61
2022-08-17T16:44:32.074Z,20.73
2022-08-17T16:49:36.941Z,20.82
2022-08-17T16:54:43.946Z,21.23
2022-08-17T16:59:50.289Z,21.05
2022-08-17T17:05:01.707Z,21.17
2022-08-17T17:10:32.182Z,21.69
2022-08-17T17:15:58.974Z,21.75
2022-08-17T17:21:01.579Z,22.41
2022-08-17T17:26:13.697Z,22.36
2022-08-17T17:31:24.021Z,23.17
2022-08-17T17:36:33.021Z,23.87
2022-08-17T17:41:47.395Z,24.39
2022-08-17T17:46:54.549Z,24.32
2022-08-17T17:52:14.394Z,24.29
2022-08-17T17:57:57.868Z,24.23
2022-08-17T18:03:21.222Z,24.48
2022-08-17T18:08:40.368Z,24.92
2022-08-17T18:14:14.883Z,24.97
2022-08-17T18:19:22.665Z,25.19
2022-08-17T18:24:35.101Z,25.29
2022-08-17T18:29:45.357Z,25.54
2022-08-17T18:34:50.710Z,25.69
2022-08-17T18:39:53.274Z,25.69
2022-08-17T18:44:55.830Z,25.61
2022-08-17T18:50:19.006Z,26.22
2022-08-17T18:55:30.433Z,26.18
2022-08-17T19:00:40.554Z,26.49
2022-08-17T19:05:44.107Z,26.02
2022-08-17T19:10:59.182Z,26.09
2022-08-17T19:16:15.842Z,25.98
2022-08-17T19:21:37.476Z,26.11
2022-08-17T19:26:53.473Z,26.54
2022-08-17T19:31:59.730Z,26.51
2022-08-17T19:37:21.049Z,26.37
2022-08-17T19:42:53.210Z,26.44
2022-08-17T19:48:25.277Z,26.52
2022-08-17T19:54:01.606Z,26.18
2022-08-17T19:59:12.548Z,26.26
2022-08-17T20:04:31.925Z,26.51
2022-08-17T20:09:44.655Z,27.14
2022-08-17T20:14:55.107Z,27.23
2022-08-17T20:20:26.859Z,27.41
2022-08-17T20:25:42.583Z,27.62
2022-08-17T20:30:48.322Z,27.35
2022-08-17T20:36:17.265Z,27.74
2022-08-17T20:41:22.331Z,27.71
2022-08-17T20:46:36.454Z,27.50
2022-08-17T20:51:43.173Z,28.06
2022-08-17T20:57:03.223Z,28.12
2022-08-17T21:02:22.264Z,28.45
2022-08-17T21:07:33.146Z,28.75
2022-08-17T21:12:50.137Z,28.60
2022-08-17T21:18:10.201Z,28.96
2022-08-17T21:23:17.995Z,29.11
2022-08-17T21:28:23.211Z,29.31
2022-08-17T21:33:39.116Z,29.71
2022-08-17T21:38:57.376Z,29.59
2022-08-17T21:44:30.490Z,29.81
2022-08-17T21:49:37.850Z,30.17
2022-08-17T21:54:44.518Z,30.15
2022-08-17T21:59:53.429Z,30.32
2022-08-17T22:05:01.832Z,30.52
2022-08-17T22:10:05.709Z,30.51
2022-08-17T22:15:09.706Z,30.54
2022-08-17T22:20:17.412Z,30.45
2022-08-17T22:25:24.729Z,30.54
2022-08-17T22:30:59.152Z,30.40
2022-08-17T22:36:25.187Z,30.54
2022-08-17T22:41:36.002Z,30.56
2022-08-17T22:46:47.380Z,30.79
2022-08-17T22:51:49.322Z,31.18
2022-08-17T22:57:23.551Z,31.16
2022-08-17T23:02:32.216Z,31.40
2022-08-17T23:07:34.121Z,31.52
2022-08-17T23:12:39.969Z,31.91
2022-08-17T23:17:42.181Z,32.25
2022-08-17T23:22:52.067Z,32.49
2022-08-17T23:27:57.461Z,32.30
2022-08-17T23:33:02.578Z,32.64
2022-08-17T23:38:05.904Z,33.04
2022-08-17T23:43:25.670Z,33.22
2022-08-17T23:48:35.986Z,33.18
2022-08-17T23:53:47.659Z,33.44
2022-08-17T23:58:49.561Z,33.28
